createdAt,value
2023-12-18T00:00:00.836Z,58.80
2023-12-18T00:02:30.773Z,62.00
2023-12-18T00:04:59.286Z,69.20
2023-12-18T00:07:28.512Z,61.30
2023-12-18T00:09:56.841Z,61.10
2023-12-18T00:12:25.388Z,74.90
2023-12-18T00:14:53.855Z,71.00
2023-12-18T00:17:22.263Z,70.30
2023-12-18T00:19:52.554Z,68.30
2023-12-18T00:22:20.950Z,55.20
2023-12-18T00:24:49.392Z,53.40
2023-12-18T00:27:18.036Z,58.40
2023-12-18T00:29:46.358Z,58.60
2023-12-18T00:32:14.900Z,50.10
2023-12-18T00:34:43.519Z,44.10
2023-12-18T00:37:12.503Z,44.60
2023-12-18T00:39:40.956Z,42.40
2023-12-18T00:42:09.648Z,45.10
2023-12-18T00:44:38.090Z,44.50
2023-12-18T00:47:06.746Z,41.80
2023-12-18T00:49:35.225Z,40.60
2023-12-18T00:52:03.891Z,41.60
2023-12-18T00:54:32.338Z,36.60
2023-12-18T00:57:00.831Z,33.80
2023-12-18T00:59:29.312Z,34.20
2023-12-18T01:01:57.689Z,36.40
2023-12-18T01:04:26.153Z,38.30
2023-12-18T01:06:54.493Z,33.60
2023-12-18T01:09:23.553Z,35.40
2023-12-18T01:11:52.422Z,35.10
2023-12-18T01:14:20.791Z,34.90
2023-12-18T01:16:49.529Z,35.40
2023-12-18T01:19:18.061Z,31.50
2023-12-18T01:21:46.498Z,25.50
2023-12-18T01:24:14.921Z,24.70
2023-12-18T01:26:43.371Z,22.50
2023-12-18T01:29:11.858Z,22.20
2023-12-18T01:31:40.240Z,20.80
2023-12-18T01:34:08.764Z,24.80
2023-12-18T01:36:37.091Z,23.30
2023-12-18T01:39:05.476Z,25.00
2023-12-18T01:41:33.965Z,24.60
2023-12-18T01:44:02.352Z,22.40
2023-12-18T01:46:30.883Z,21.10
2023-12-18T01:48:59.594Z,24.40
2023-12-18T01:51:29.397Z,19.30
2023-12-18T01:53:59.812Z,22.20
2023-12-18T01:56:31.879Z,24.40
2023-12-18T01:59:02.254Z,20.70
2023-12-18T02:01:31.238Z,19.60
2023-12-18T02:04:00.456Z,22.00
2023-12-18T02:06:29.304Z,49.70
2023-12-18T02:08:58.652Z,37.90
2023-12-18T02:11:27.197Z,30.00
2023-12-18T02:13:55.742Z,34.00
2023-12-18T02:16:24.280Z,26.10
2023-12-18T02:18:52.712Z,24.90
2023-12-18T02:21:22.579Z,25.90
2023-12-18T02:23:52.291Z,26.30
2023-12-18T02:26:22.130Z,20.80
2023-12-18T02:28:50.664Z,19.70
2023-12-18T02:31:20.139Z,17.90
2023-12-18T02:33:51.663Z,18.20
2023-12-18T02:36:20.581Z,24.50
2023-12-18T02:38:49.097Z,23.60
2023-12-18T02:41:17.517Z,24.30
2023-12-18T02:43:46.096Z,21.90
2023-12-18T02:46:14.547Z,21.80
2023-12-18T02:48:43.240Z,23.70
2023-12-18T02:51:11.941Z,22.00
2023-12-18T02:53:40.270Z,20.20
2023-12-18T02:56:08.634Z,22.30
2023-12-18T02:58:37.178Z,21.20
2023-12-18T03:01:05.366Z,19.90
2023-12-18T03:03:33.709Z,18.90
2023-12-18T03:06:02.263Z,24.50
2023-12-18T03:08:30.772Z,24.40
2023-12-18T03:10:59.274Z,23.30
2023-12-18T03:13:27.757Z,23.00
2023-12-18T03:15:58.413Z,22.70
2023-12-18T03:18:26.956Z,18.20
2023-12-18T03:20:55.568Z,17.40
2023-12-18T03:23:23.930Z,19.30
2023-12-18T03:25:52.445Z,18.60
2023-12-18T03:28:20.801Z,17.50
2023-12-18T03:30:49.223Z,15.10
2023-12-18T03:33:17.974Z,16.40
2023-12-18T03:35:46.796Z,22.40
2023-12-18T03:38:15.239Z,17.00
2023-12-18T03:40:43.695Z,16.50
2023-12-18T03:43:12.675Z,16.30
2023-12-18T03:45:41.094Z,15.90
2023-12-18T03:48:10.414Z,14.50
2023-12-18T03:50:39.070Z,15.20
2023-12-18T03:53:09.931Z,14.90
2023-12-18T03:55:39.549Z,15.30
2023-12-18T03:58:08.031Z,15.40
2023-12-18T04:00:36.581Z,16.40
2023-12-18T04:03:06.138Z,14.40
2023-12-18T04:05:34.866Z,14.00
2023-12-18T04:08:03.450Z,14.60
2023-12-18T04:10:31.842Z,12.50
2023-12-18T04:13:00.280Z,12.00
2023-12-18T04:15:29.460Z,12.90
2023-12-18T04:17:59.277Z,14.90
2023-12-18T04:20:27.841Z,15.70
2023-12-18T04:22:56.186Z,13.10
2023-12-18T04:25:25.922Z,14.90
2023-12-18T04:27:54.705Z,16.30
2023-12-18T04:30:23.350Z,15.70
2023-12-18T04:32:51.964Z,17.00
2023-12-18T04:35:20.527Z,15.50
2023-12-18T04:37:49.034Z,12.40
2023-12-18T04:40:18.286Z,13.10
2023-12-18T04:42:47.063Z,22.50
2023-12-18T04:45:15.865Z,17.30
2023-12-18T04:47:44.809Z,18.80
2023-12-18T04:50:14.660Z,18.60
2023-12-18T04:52:43.635Z,14.80
2023-12-18T04:55:12.429Z,13.50
2023-12-18T04:57:40.979Z,15.30
2023-12-18T05:00:09.852Z,15.10
2023-12-18T05:02:39.367Z,15.90
2023-12-18T05:05:08.285Z,16.30
2023-12-18T05:07:36.637Z,12.50
2023-12-18T05:10:05.372Z,15.70
2023-12-18T05:12:33.869Z,18.20
2023-12-18T05:15:03.952Z,14.80
2023-12-18T05:17:33.499Z,20.00
2023-12-18T05:20:01.917Z,24.10
2023-12-18T05:22:30.321Z,21.90
2023-12-18T05:24:58.729Z,20.80
2023-12-18T05:27:27.259Z,20.20
2023-12-18T05:29:55.815Z,17.10
2023-12-18T05:32:24.313Z,14.20
2023-12-18T05:34:53.001Z,14.00
2023-12-18T05:37:22.780Z,15.00
2023-12-18T05:39:51.141Z,13.10
2023-12-18T05:42:20.824Z,14.40
2023-12-18T05:44:49.247Z,17.30
2023-12-18T05:47:17.762Z,15.00
2023-12-18T05:49:46.362Z,13.70
2023-12-18T05:52:14.872Z,12.40
2023-12-18T05:54:43.294Z,15.50
2023-12-18T05:57:13.596Z,17.50
2023-12-18T05:59:42.174Z,20.30
2023-12-18T06:02:11.007Z,22.00
2023-12-18T06:04:43.217Z,19.10
2023-12-18T06:07:12.270Z,16.70
2023-12-18T06:09:41.088Z,29.50
2023-12-18T06:12:09.673Z,44.60
2023-12-18T06:14:40.591Z,31.00
2023-12-18T06:17:11.531Z,18.80
2023-12-18T06:19:40.130Z,17.40
2023-12-18T06:22:11.535Z,18.40
2023-12-18T06:24:40.757Z,22.70
2023-12-18T06:27:09.444Z,25.70
2023-12-18T06:29:37.971Z,21.20
2023-12-18T06:32:06.949Z,18.90
2023-12-18T06:34:35.768Z,19.40
2023-12-18T06:37:04.618Z,18.30
2023-12-18T06:39:33.206Z,20.10
2023-12-18T06:42:01.699Z,22.00
2023-12-18T06:44:30.170Z,18.30
2023-12-18T06:47:00.650Z,20.00
2023-12-18T06:49:29.846Z,26.30
2023-12-18T06:51:58.558Z,26.10
2023-12-18T06:54:28.686Z,46.70
2023-12-18T06:56:57.266Z,30.30
2023-12-18T06:59:25.737Z,45.60
2023-12-18T07:01:54.261Z,80.80
2023-12-18T07:04:22.781Z,80.90
2023-12-18T07:06:51.204Z,54.50
2023-12-18T07:09:20.956Z,59.50
2023-12-18T07:11:49.382Z,99.20
2023-12-18T07:14:19.461Z,44.70
2023-12-18T07:16:47.936Z,30.90
2023-12-18T07:19:17.430Z,36.70
2023-12-18T07:21:46.194Z,36.30
2023-12-18T07:24:14.753Z,57.70
2023-12-18T07:26:43.289Z,59.00
2023-12-18T07:29:11.701Z,48.90
2023-12-18T07:31:40.374Z,36.60
2023-12-18T07:34:09.104Z,30.70
2023-12-18T07:36:40.666Z,29.60
2023-12-18T07:39:10.006Z,33.90
2023-12-18T07:41:38.379Z,32.00
2023-12-18T07:44:06.644Z,29.30
2023-12-18T07:46:34.919Z,27.20
2023-12-18T07:49:04.381Z,27.30
2023-12-18T07:51:33.062Z,37.50
2023-12-18T07:54:01.645Z,42.30
2023-12-18T07:56:30.119Z,40.30
2023-12-18T07:58:58.601Z,36.90
2023-12-18T08:01:27.209Z,55.10
2023-12-18T08:03:55.784Z,32.50
2023-12-18T08:06:24.275Z,33.70
2023-12-18T08:08:52.793Z,59.20
2023-12-18T08:11:21.372Z,49.40
2023-12-18T08:13:49.818Z,30.10
2023-12-18T08:16:18.605Z,18.40
2023-12-18T08:18:48.780Z,15.50
2023-12-18T08:21:17.479Z,13.10
2023-12-18T08:23:45.888Z,13.00
2023-12-18T08:26:14.290Z,12.70
2023-12-18T08:28:46.333Z,12.10
2023-12-18T08:31:14.816Z,11.20
2023-12-18T08:33:43.501Z,11.20
2023-12-18T08:36:12.319Z,13.30
2023-12-18T08:38:40.968Z,12.30
2023-12-18T08:41:09.417Z,11.90
2023-12-18T08:43:37.868Z,30.80
2023-12-18T08:46:06.428Z,47.50
2023-12-18T08:48:35.019Z,40.60
2023-12-18T08:51:06.184Z,55.20
2023-12-18T08:53:35.486Z,54.80
2023-12-18T08:56:04.676Z,27.40
2023-12-18T08:58:33.803Z,34.20
2023-12-18T09:01:02.457Z,24.00
2023-12-18T09:03:36.398Z,40.10
2023-12-18T09:06:05.674Z,23.30
2023-12-18T09:08:40.813Z,24.00
2023-12-18T09:11:10.215Z,21.50
2023-12-18T09:13:39.366Z,17.20
2023-12-18T09:16:08.130Z,16.70
2023-12-18T09:18:36.698Z,12.00
2023-12-18T09:21:05.422Z,10.10
2023-12-18T09:23:33.821Z,10.20
2023-12-18T09:26:02.357Z,10.20
2023-12-18T09:28:34.369Z,9.60
2023-12-18T09:31:02.845Z,10.00
2023-12-18T09:33:31.495Z,10.30
2023-12-18T09:36:01.769Z,13.70
2023-12-18T09:38:30.315Z,10.30
2023-12-18T09:40:58.825Z,9.00
2023-12-18T09:43:28.522Z,7.30
2023-12-18T09:45:58.275Z,8.20
2023-12-18T09:48:27.058Z,8.40
2023-12-18T09:50:56.902Z,8.40
2023-12-18T09:53:26.176Z,7.50
2023-12-18T09:55:56.232Z,4.70
2023-12-18T09:58:25.543Z,4.20
2023-12-18T10:00:55.021Z,4.20
2023-12-18T10:03:23.653Z,3.80
2023-12-18T10:05:55.013Z,3.90
2023-12-18T10:08:23.509Z,3.80
2023-12-18T10:10:52.058Z,3.70
2023-12-18T10:13:20.321Z,3.70
2023-12-18T10:15:48.789Z,3.00
2023-12-18T10:18:20.788Z,4.30
2023-12-18T10:20:50.846Z,3.70
2023-12-18T10:23:19.311Z,3.90
2023-12-18T10:25:49.351Z,3.60
2023-12-18T10:28:18.346Z,4.10
2023-12-18T10:30:47.197Z,4.10
2023-12-18T10:33:15.749Z,4.20
2023-12-18T10:35:45.026Z,4.30
2023-12-18T10:38:20.553Z,4.00
2023-12-18T10:40:56.003Z,11.40
2023-12-18T10:43:25.346Z,9.40
2023-12-18T10:45:54.753Z,4.70
2023-12-18T10:48:26.512Z,4.60
2023-12-18T10:50:59.293Z,4.40
2023-12-18T10:53:28.890Z,4.90
2023-12-18T10:56:00.366Z,4.00
2023-12-18T10:58:30.307Z,4.00
2023-12-18T11:01:00.688Z,3.80
2023-12-18T11:03:38.228Z,4.40
2023-12-18T11:06:11.405Z,7.80
2023-12-18T11:08:42.938Z,5.50
2023-12-18T11:11:14.348Z,4.50
2023-12-18T11:14:03.426Z,5.60
2023-12-18T11:16:42.443Z,4.60
2023-12-18T11:19:39.326Z,5.40
2023-12-18T11:22:07.847Z,8.20
2023-12-18T11:24:37.724Z,5.60
2023-12-18T11:27:07.647Z,8.90
2023-12-18T11:29:38.847Z,5.30
2023-12-18T11:32:07.632Z,5.90
2023-12-18T11:34:36.135Z,9.10
2023-12-18T11:37:08.104Z,5.30
2023-12-18T11:39:41.667Z,4.50
2023-12-18T11:42:12.952Z,6.00
2023-12-18T11:44:41.470Z,11.90
2023-12-18T11:47:09.798Z,7.90
2023-12-18T11:49:38.725Z,6.90
2023-12-18T11:52:18.769Z,8.40
2023-12-18T11:54:47.381Z,6.90
2023-12-18T11:57:20.422Z,6.60
2023-12-18T11:59:49.264Z,6.70
2023-12-18T12:02:18.107Z,7.80
2023-12-18T12:04:47.465Z,7.10
2023-12-18T12:07:16.146Z,6.20
2023-12-18T12:09:45.343Z,6.30
2023-12-18T12:12:15.486Z,6.50
2023-12-18T12:14:44.083Z,6.60
2023-12-18T12:17:12.387Z,6.40
2023-12-18T12:19:40.960Z,6.00
2023-12-18T12:22:10.499Z,6.00
2023-12-18T12:24:43.752Z,5.70
2023-12-18T12:27:13.461Z,7.90
2023-12-18T12:29:44.242Z,7.80
2023-12-18T12:32:15.090Z,7.00
2023-12-18T12:34:44.300Z,6.90
2023-12-18T12:37:13.594Z,7.80
2023-12-18T12:40:01.856Z,6.70
2023-12-18T12:42:36.030Z,6.30
2023-12-18T12:45:05.677Z,8.00
2023-12-18T12:47:34.995Z,6.70
2023-12-18T12:50:08.152Z,6.40
2023-12-18T12:52:38.904Z,6.90
2023-12-18T12:55:07.505Z,7.00
2023-12-18T12:57:36.038Z,7.70
2023-12-18T13:00:09.488Z,7.20
2023-12-18T13:02:38.024Z,7.70
2023-12-18T13:05:10.488Z,7.80
2023-12-18T13:07:39.234Z,6.80
2023-12-18T13:10:08.558Z,7.10
2023-12-18T13:12:36.918Z,7.10
2023-12-18T13:15:05.749Z,5.50
2023-12-18T13:17:34.748Z,4.70
2023-12-18T13:20:12.435Z,5.00
2023-12-18T13:22:48.643Z,5.30
2023-12-18T13:25:18.483Z,5.30
2023-12-18T13:27:46.918Z,4.90
2023-12-18T13:30:15.519Z,4.60
2023-12-18T13:32:44.149Z,4.50
2023-12-18T13:35:12.703Z,4.90
2023-12-18T13:37:41.501Z,4.30
2023-12-18T13:40:10.296Z,4.30
2023-12-18T13:42:38.671Z,4.80
2023-12-18T13:45:08.784Z,4.50
2023-12-18T13:47:37.131Z,4.00
2023-12-18T13:50:06.191Z,4.20
2023-12-18T13:52:34.747Z,4.00
2023-12-18T13:55:03.256Z,3.80
2023-12-18T13:57:39.171Z,5.60
2023-12-18T14:00:14.791Z,4.90
2023-12-18T14:02:43.132Z,4.90
2023-12-18T14:05:11.446Z,4.30
2023-12-18T14:07:40.067Z,4.40
2023-12-18T14:10:10.409Z,4.40
2023-12-18T14:12:39.247Z,4.30
2023-12-18T14:15:07.926Z,4.40
2023-12-18T14:17:36.465Z,4.00
2023-12-18T14:20:06.612Z,3.90
2023-12-18T14:22:35.239Z,4.40
2023-12-18T14:25:07.355Z,4.60
2023-12-18T14:27:36.072Z,4.90
2023-12-18T14:30:05.983Z,7.70
2023-12-18T14:32:34.333Z,6.60
2023-12-18T14:35:03.565Z,6.70
2023-12-18T14:37:32.076Z,6.50
2023-12-18T14:40:04.320Z,5.90
2023-12-18T14:42:32.876Z,6.50
2023-12-18T14:45:01.257Z,6.50
2023-12-18T14:47:29.665Z,6.30
2023-12-18T14:49:58.158Z,14.00
2023-12-18T14:52:26.504Z,12.20
2023-12-18T14:54:55.839Z,8.10
2023-12-18T14:57:24.556Z,6.80
2023-12-18T14:59:53.622Z,8.40
2023-12-18T15:02:22.550Z,14.00
2023-12-18T15:04:51.399Z,29.70
2023-12-18T15:07:20.049Z,51.00
2023-12-18T15:09:48.384Z,51.50
2023-12-18T15:12:16.939Z,27.70
2023-12-18T15:14:45.316Z,22.40
2023-12-18T15:17:14.342Z,33.80
2023-12-18T15:19:43.162Z,27.00
2023-12-18T15:22:13.294Z,14.10
2023-12-18T15:24:41.792Z,12.50
2023-12-18T15:27:12.436Z,9.90
2023-12-18T15:29:41.140Z,11.50
2023-12-18T15:32:11.282Z,16.50
2023-12-18T15:34:39.850Z,12.10
2023-12-18T15:37:09.065Z,8.80
2023-12-18T15:39:37.503Z,8.00
2023-12-18T15:42:06.501Z,9.60
2023-12-18T15:44:35.948Z,14.80
2023-12-18T15:47:05.221Z,10.10
2023-12-18T15:49:33.769Z,10.60
2023-12-18T15:52:03.072Z,9.10
2023-12-18T15:54:31.516Z,9.50
2023-12-18T15:57:00.300Z,8.80
2023-12-18T15:59:28.773Z,8.60
2023-12-18T16:01:57.139Z,7.10
2023-12-18T16:04:25.710Z,7.20
2023-12-18T16:06:54.821Z,7.10
2023-12-18T16:09:23.166Z,9.00
2023-12-18T16:11:53.933Z,9.00
2023-12-18T16:14:22.468Z,9.40
2023-12-18T16:16:52.416Z,9.10
2023-12-18T16:19:21.273Z,11.30
2023-12-18T16:21:50.788Z,10.50
2023-12-18T16:24:20.228Z,11.90
2023-12-18T16:26:48.696Z,13.80
2023-12-18T16:29:17.814Z,11.00
2023-12-18T16:31:49.698Z,11.20
2023-12-18T16:34:18.340Z,12.60
2023-12-18T16:36:46.718Z,13.50
2023-12-18T16:39:15.779Z,14.70
2023-12-18T16:41:44.332Z,11.90
2023-12-18T16:44:15.516Z,12.20
2023-12-18T16:46:45.669Z,12.60
2023-12-18T16:49:14.856Z,13.40
2023-12-18T16:51:43.595Z,14.70
2023-12-18T16:54:12.734Z,16.30
2023-12-18T16:56:41.276Z,16.40
2023-12-18T16:59:16.588Z,17.50
2023-12-18T17:01:51.787Z,16.30
2023-12-18T17:04:20.225Z,16.80
2023-12-18T17:06:48.893Z,14.60
2023-12-18T17:09:22.456Z,14.90
2023-12-18T17:11:53.237Z,16.00
2023-12-18T17:14:21.657Z,16.00
2023-12-18T17:16:54.652Z,17.40
2023-12-18T17:19:23.282Z,24.90
2023-12-18T17:21:51.968Z,27.50
2023-12-18T17:24:21.128Z,26.00
2023-12-18T17:26:49.597Z,27.20
2023-12-18T17:29:18.491Z,26.80
2023-12-18T17:31:48.113Z,26.20
2023-12-18T17:34:19.364Z,23.20
2023-12-18T17:36:48.430Z,25.00
2023-12-18T17:39:19.139Z,26.30
2023-12-18T17:41:52.759Z,29.40
2023-12-18T17:44:21.455Z,27.80
2023-12-18T17:46:49.715Z,25.70
2023-12-18T17:49:18.904Z,28.50
2023-12-18T17:51:47.719Z,32.70
2023-12-18T17:54:16.391Z,42.10
2023-12-18T17:56:44.768Z,51.70
2023-12-18T17:59:16.083Z,47.30
2023-12-18T18:01:44.528Z,37.00
2023-12-18T18:04:13.158Z,30.10
2023-12-18T18:06:42.424Z,41.50
2023-12-18T18:09:14.240Z,42.00
2023-12-18T18:11:42.636Z,50.70
2023-12-18T18:14:11.181Z,51.90
2023-12-18T18:16:42.990Z,46.90
2023-12-18T18:19:20.634Z,32.00
2023-12-18T18:21:51.962Z,34.10
2023-12-18T18:24:22.124Z,35.00
2023-12-18T18:27:08.212Z,33.20
2023-12-18T18:29:39.537Z,34.00
2023-12-18T18:32:10.972Z,22.60
2023-12-18T18:34:40.942Z,27.70
2023-12-18T18:37:09.579Z,28.30
2023-12-18T18:39:41.740Z,29.10
2023-12-18T18:44:45.672Z,22.20
2023-12-18T18:47:14.116Z,20.00
2023-12-18T18:49:45.316Z,17.80
2023-12-18T18:52:14.220Z,21.80
2023-12-18T18:54:43.408Z,20.20
2023-12-18T18:57:13.755Z,18.70
2023-12-18T18:59:43.119Z,20.70
2023-12-18T19:02:11.571Z,17.60
2023-12-18T19:04:41.554Z,20.00
2023-12-18T19:07:09.956Z,28.00
2023-12-18T19:09:39.191Z,23.10
2023-12-18T19:12:11.095Z,22.20
2023-12-18T19:14:39.489Z,21.50
2023-12-18T19:17:08.446Z,22.30
2023-12-18T19:19:36.969Z,26.80
2023-12-18T19:22:06.649Z,25.30
2023-12-18T19:24:35.008Z,31.60
2023-12-18T19:27:11.956Z,24.10
2023-12-18T19:29:41.911Z,22.20
2023-12-18T19:32:10.430Z,29.80
2023-12-18T19:34:41.561Z,35.30
2023-12-18T19:37:09.992Z,35.00
2023-12-18T19:39:38.529Z,36.70
2023-12-18T19:42:07.990Z,35.50
2023-12-18T19:44:36.716Z,31.90
2023-12-18T19:47:05.315Z,30.70
2023-12-18T19:49:34.299Z,25.80
2023-12-18T19:52:02.847Z,30.30
2023-12-18T19:54:34.335Z,31.80
2023-12-18T19:57:03.501Z,30.30
2023-12-18T19:59:32.209Z,33.70
2023-12-18T20:02:01.156Z,35.70
2023-12-18T20:04:29.944Z,47.90
2023-12-18T20:07:05.947Z,55.90
2023-12-18T20:09:34.562Z,44.90
2023-12-18T20:12:06.893Z,38.40
2023-12-18T20:14:35.163Z,34.00
2023-12-18T20:17:03.917Z,32.40
2023-12-18T20:19:32.435Z,33.30
2023-12-18T20:22:01.121Z,32.10
2023-12-18T20:24:29.594Z,32.30
2023-12-18T20:26:58.385Z,31.50
2023-12-18T20:29:26.607Z,31.30
2023-12-18T20:31:54.962Z,49.10
2023-12-18T20:34:23.460Z,56.90
2023-12-18T20:36:54.377Z,56.20
2023-12-18T20:39:22.941Z,50.60
2023-12-18T20:41:51.629Z,51.70
2023-12-18T20:44:23.162Z,55.20
2023-12-18T20:46:55.770Z,57.60
2023-12-18T20:49:29.179Z,49.00
2023-12-18T20:51:58.159Z,44.30
2023-12-18T20:54:26.658Z,39.10
2023-12-18T20:56:55.085Z,40.30
2023-12-18T20:59:23.374Z,37.90
2023-12-18T21:01:51.790Z,35.90
2023-12-18T21:04:20.335Z,37.10
2023-12-18T21:06:49.633Z,39.80
2023-12-18T21:09:18.179Z,38.60
2023-12-18T21:11:46.582Z,37.80
2023-12-18T21:14:22.944Z,40.30
2023-12-18T21:16:58.784Z,36.60
2023-12-18T21:19:27.112Z,39.30
2023-12-18T21:21:56.907Z,40.40
2023-12-18T21:24:25.744Z,39.20
2023-12-18T21:26:54.137Z,42.50
2023-12-18T21:29:22.630Z,42.40
2023-12-18T21:31:51.151Z,40.00
2023-12-18T21:34:20.719Z,38.80
2023-12-18T21:36:51.423Z,41.50
2023-12-18T21:39:21.616Z,39.60
2023-12-18T21:41:50.029Z,42.00
2023-12-18T21:44:18.371Z,40.60
2023-12-18T21:46:46.780Z,39.90
2023-12-18T21:49:15.274Z,40.80
2023-12-18T21:51:44.466Z,39.70
2023-12-18T21:54:13.102Z,41.80
2023-12-18T21:56:44.961Z,37.40
2023-12-18T21:59:13.286Z,44.30
2023-12-18T22:01:41.675Z,41.90
2023-12-18T22:04:10.366Z,40.60
2023-12-18T22:06:38.794Z,45.30
2023-12-18T22:09:07.669Z,43.70
2023-12-18T22:11:35.941Z,47.40
2023-12-18T22:14:06.136Z,44.30
2023-12-18T22:16:36.011Z,39.90
2023-12-18T22:19:05.277Z,43.20
2023-12-18T22:21:33.713Z,43.20
2023-12-18T22:24:02.399Z,39.80
2023-12-18T22:26:30.729Z,38.60
2023-12-18T22:28:59.090Z,41.50
2023-12-18T22:31:33.149Z,37.30
2023-12-18T22:36:31.181Z,34.80
2023-12-18T22:39:05.665Z,33.00
2023-12-18T22:41:41.684Z,31.60
2023-12-18T22:44:10.323Z,31.10
2023-12-18T22:46:39.831Z,32.30
2023-12-18T22:49:09.122Z,36.20
2023-12-18T22:51:37.679Z,33.40
2023-12-18T22:54:06.082Z,33.00
2023-12-18T22:56:34.475Z,31.00
2023-12-18T22:59:03.279Z,30.70
2023-12-18T23:01:32.111Z,31.20
2023-12-18T23:04:02.147Z,31.20
2023-12-18T23:06:33.593Z,29.50
2023-12-18T23:09:02.440Z,32.80
2023-12-18T23:11:31.449Z,33.90
2023-12-18T23:13:59.875Z,36.00
2023-12-18T23:16:28.365Z,38.00
2023-12-18T23:18:57.003Z,33.00
2023-12-18T23:21:25.503Z,34.60
2023-12-18T23:24:00.079Z,35.70
2023-12-18T23:26:28.863Z,35.30
2023-12-18T23:28:57.314Z,34.40
2023-12-18T23:31:25.877Z,36.30
2023-12-18T23:33:56.373Z,34.40
2023-12-18T23:36:24.960Z,34.60
2023-12-18T23:38:53.373Z,35.90
2023-12-18T23:41:23.356Z,34.40
2023-12-18T23:43:52.129Z,34.90
2023-12-18T23:46:20.504Z,34.20
2023-12-18T23:48:48.927Z,33.90
2023-12-18T23:53:52.393Z,33.90
2023-12-18T23:56:22.333Z,34.80
2023-12-18T23:58:50.754Z,35.40
